createdAt,value
2022-12-07T00:00:21.440Z,9.32
2022-12-07T00:01:27.485Z,9.33
2022-12-07T00:02:29.403Z,9.32
2022-12-07T00:03:31.230Z,9.33
2022-12-07T00:04:33.062Z,9.32
2022-12-07T00:05:34.782Z,9.31
2022-12-07T00:06:43.533Z,9.32
2022-12-07T00:07:45.330Z,9.32
2022-12-07T00:08:48.723Z,9.30
2022-12-07T00:09:50.560Z,9.29
2022-12-07T00:10:52.395Z,9.29
2022-12-07T00:11:54.221Z,9.28
2022-12-07T00:12:56.008Z,9.27
2022-12-07T00:14:02.284Z,9.29
2022-12-07T00:15:04.754Z,9.28
2022-12-07T00:16:12.570Z,9.28
2022-12-07T00:17:14.287Z,9.28
2022-12-07T00:18:16.051Z,9.28
2022-12-07T00:19:18.209Z,9.27
2022-12-07T00:20:20.027Z,9.28
2022-12-07T00:21:26.245Z,9.29
2022-12-07T00:22:27.965Z,9.26
2022-12-07T00:23:29.716Z,9.26
2022-12-07T00:24:31.476Z,9.26
2022-12-07T00:25:33.256Z,9.25
2022-12-07T00:26:38.742Z,9.27
2022-12-07T00:27:40.513Z,9.24
2022-12-07T00:28:46.782Z,9.26
2022-12-07T00:29:48.493Z,9.24
2022-12-07T00:30:50.206Z,9.25
2022-12-07T00:31:52.033Z,9.25
2022-12-07T00:32:53.767Z,9.25
2022-12-07T00:33:55.640Z,9.25
2022-12-07T00:34:57.337Z,9.24
2022-12-07T00:36:00.943Z,9.25
2022-12-07T00:37:02.789Z,9.24
2022-12-07T00:38:04.544Z,9.25
2022-12-07T00:39:06.334Z,9.26
2022-12-07T00:40:08.781Z,9.26
2022-12-07T00:41:15.231Z,9.26
2022-12-07T00:42:16.993Z,9.26
2022-12-07T00:43:18.749Z,9.24
2022-12-07T00:44:20.526Z,9.25
2022-12-07T00:45:22.458Z,9.24
2022-12-07T00:46:25.906Z,9.25
2022-12-07T00:47:27.722Z,9.26
2022-12-07T00:48:29.718Z,9.24
2022-12-07T00:49:31.436Z,9.26
2022-12-07T00:50:33.114Z,9.25
2022-12-07T00:51:34.893Z,9.26
2022-12-07T00:52:36.727Z,9.25
2022-12-07T00:53:41.890Z,9.25
2022-12-07T00:54:43.917Z,9.25
2022-12-07T00:55:46.558Z,9.24
2022-12-07T00:56:48.297Z,9.23
2022-12-07T00:57:49.986Z,9.26
2022-12-07T00:58:57.724Z,9.25
2022-12-07T01:00:01.528Z,9.25
2022-12-07T01:01:06.158Z,9.25
2022-12-07T01:02:07.965Z,9.24
2022-12-07T01:03:13.592Z,9.24
2022-12-07T01:04:15.432Z,9.24
2022-12-07T01:05:17.328Z,9.24
2022-12-07T01:06:21.495Z,9.24
2022-12-07T01:07:23.533Z,9.24
2022-12-07T01:08:27.967Z,9.22
2022-12-07T01:09:29.730Z,9.24
2022-12-07T01:10:32.514Z,9.24
2022-12-07T01:11:34.437Z,9.23
2022-12-07T01:12:36.270Z,9.23
2022-12-07T01:13:38.142Z,9.23
2022-12-07T01:14:40.000Z,9.22
2022-12-07T01:15:45.864Z,9.25
2022-12-07T01:16:47.596Z,9.24
2022-12-07T01:17:49.617Z,9.24
2022-12-07T01:18:54.560Z,9.25
2022-12-07T01:19:56.304Z,9.24
2022-12-07T01:21:04.154Z,9.23
2022-12-07T01:22:05.992Z,9.23
2022-12-07T01:23:07.763Z,9.23
2022-12-07T01:24:12.334Z,9.23
2022-12-07T01:25:14.126Z,9.23
2022-12-07T01:26:23.529Z,9.24
2022-12-07T01:27:25.290Z,9.21
2022-12-07T01:28:28.322Z,9.22
2022-12-07T01:29:30.027Z,9.23
2022-12-07T01:30:31.759Z,9.21
2022-12-07T01:31:34.875Z,9.23
2022-12-07T01:32:36.597Z,9.23
2022-12-07T01:33:39.846Z,9.22
2022-12-07T01:34:41.551Z,9.22
2022-12-07T01:35:43.246Z,9.22
2022-12-07T01:36:45.042Z,9.22
2022-12-07T01:37:46.816Z,9.24
2022-12-07T01:38:54.534Z,9.23
2022-12-07T01:39:56.316Z,9.24
2022-12-07T01:40:59.920Z,9.24
2022-12-07T01:42:01.769Z,9.24
2022-12-07T01:43:03.574Z,9.24
2022-12-07T01:44:15.366Z,9.25
2022-12-07T01:45:40.496Z,9.24
2022-12-07T01:47:00.357Z,9.25
2022-12-07T01:48:03.027Z,9.24
2022-12-07T01:49:11.085Z,9.25
2022-12-07T01:50:13.136Z,9.22
2022-12-07T01:51:16.221Z,9.24
2022-12-07T01:52:23.576Z,9.24
2022-12-07T01:53:29.331Z,9.24
2022-12-07T01:54:33.675Z,9.25
2022-12-07T01:55:41.063Z,9.25
2022-12-07T01:56:52.310Z,9.25
2022-12-07T01:57:56.525Z,9.23
2022-12-07T01:59:01.188Z,9.22
2022-12-07T02:00:07.420Z,9.23
2022-12-07T02:01:09.313Z,9.24
2022-12-07T02:02:20.557Z,9.24
2022-12-07T02:03:35.050Z,9.26
2022-12-07T02:04:37.332Z,9.23
2022-12-07T02:05:42.346Z,9.23
2022-12-07T02:06:45.471Z,9.23
2022-12-07T02:07:50.092Z,9.23
2022-12-07T02:08:51.908Z,9.22
2022-12-07T02:09:53.710Z,9.22
2022-12-07T02:10:56.060Z,9.23
2022-12-07T02:11:58.380Z,9.22
2022-12-07T02:13:09.473Z,9.23
2022-12-07T02:14:11.228Z,9.22
2022-12-07T02:15:13.774Z,9.23
2022-12-07T02:17:15.326Z,9.22
2022-12-07T02:18:41.450Z,9.20
2022-12-07T02:20:34.194Z,9.17
2022-12-07T02:21:54.061Z,9.16
2022-12-07T02:23:50.596Z,9.14
2022-12-07T02:25:55.389Z,9.12
2022-12-07T02:27:14.030Z,9.11
2022-12-07T02:28:35.355Z,9.09
2022-12-07T02:29:46.372Z,9.09
2022-12-07T02:30:53.163Z,9.08
2022-12-07T02:32:16.729Z,9.08
2022-12-07T02:33:34.839Z,9.07
2022-12-07T02:34:55.023Z,9.06
2022-12-07T02:36:22.431Z,9.05
2022-12-07T02:37:59.334Z,9.04
2022-12-07T02:39:14.583Z,9.02
2022-12-07T02:40:28.404Z,9.00
2022-12-07T02:41:56.585Z,9.00
2022-12-07T02:43:25.339Z,8.99
2022-12-07T02:44:31.686Z,8.96
2022-12-07T02:45:40.649Z,8.97
2022-12-07T02:47:03.458Z,8.96
2022-12-07T02:48:09.814Z,8.95
2022-12-07T02:49:12.341Z,8.93
2022-12-07T02:50:14.115Z,8.93
2022-12-07T02:51:18.986Z,8.97
2022-12-07T02:52:20.726Z,8.96
2022-12-07T02:53:40.705Z,8.96
2022-12-07T02:54:42.452Z,8.95
2022-12-07T02:55:44.744Z,8.96
2022-12-07T02:57:27.853Z,8.95
2022-12-07T02:58:51.020Z,8.95
2022-12-07T03:00:09.549Z,8.95
2022-12-07T03:01:54.543Z,8.95
2022-12-07T03:03:11.876Z,8.94
2022-12-07T03:05:01.960Z,8.94
2022-12-07T03:06:32.411Z,8.92
2022-12-07T03:08:02.838Z,8.93
2022-12-07T03:09:23.590Z,8.94
2022-12-07T03:10:37.264Z,8.95
2022-12-07T03:11:51.625Z,8.96
2022-12-07T03:13:03.554Z,8.95
2022-12-07T03:14:29.659Z,8.96
2022-12-07T03:15:47.409Z,8.98
2022-12-07T03:17:00.855Z,8.97
2022-12-07T03:18:06.108Z,8.97
2022-12-07T03:19:15.734Z,8.99
2022-12-07T03:20:22.926Z,8.96
2022-12-07T03:21:58.271Z,8.98
2022-12-07T03:23:00.811Z,8.97
2022-12-07T03:24:12.869Z,8.98
2022-12-07T03:25:17.866Z,8.98
2022-12-07T03:26:24.794Z,8.99
2022-12-07T03:27:37.879Z,8.99
2022-12-07T03:28:49.499Z,9.00
2022-12-07T03:30:12.551Z,9.00
2022-12-07T03:31:30.845Z,9.00
2022-12-07T03:32:42.283Z,8.99
2022-12-07T03:33:51.981Z,8.99
2022-12-07T03:35:04.707Z,8.99
2022-12-07T03:36:22.305Z,8.98
2022-12-07T03:37:31.370Z,8.99
2022-12-07T03:38:55.609Z,8.97
2022-12-07T03:40:20.762Z,8.97
2022-12-07T03:41:32.355Z,8.97
2022-12-07T03:42:34.805Z,8.94
2022-12-07T03:43:38.364Z,8.95
2022-12-07T03:44:41.497Z,8.94
2022-12-07T03:46:06.273Z,8.94
2022-12-07T03:47:44.014Z,8.94
2022-12-07T03:49:03.246Z,8.92
2022-12-07T03:50:32.110Z,8.94
2022-12-07T03:51:57.834Z,8.92
2022-12-07T03:53:16.460Z,8.90
2022-12-07T03:54:32.859Z,8.88
2022-12-07T03:55:40.040Z,8.88
2022-12-07T03:56:45.144Z,8.88
2022-12-07T03:57:50.822Z,8.88
2022-12-07T03:58:54.893Z,8.89
2022-12-07T03:59:58.157Z,8.87
2022-12-07T04:01:00.421Z,8.87
2022-12-07T04:02:08.274Z,8.87
2022-12-07T04:03:11.335Z,8.89
2022-12-07T04:04:13.466Z,8.90
2022-12-07T04:05:15.651Z,8.91
2022-12-07T04:06:18.122Z,8.91
2022-12-07T04:07:20.302Z,8.92
2022-12-07T04:08:22.605Z,8.93
2022-12-07T04:09:24.912Z,8.93
2022-12-07T04:10:27.036Z,8.90
2022-12-07T04:11:29.149Z,8.91
2022-12-07T04:12:31.307Z,8.93
2022-12-07T04:13:53.438Z,8.92
2022-12-07T04:14:55.561Z,8.92
2022-12-07T04:15:57.665Z,8.93
2022-12-07T04:17:00.542Z,8.93
2022-12-07T04:18:02.674Z,8.93
2022-12-07T04:19:04.793Z,8.93
2022-12-07T04:20:08.593Z,8.92
2022-12-07T04:21:10.785Z,8.91
2022-12-07T04:22:12.964Z,8.90
2022-12-07T04:23:15.069Z,8.90
2022-12-07T04:24:17.485Z,8.89
2022-12-07T04:25:19.582Z,8.87
2022-12-07T04:26:21.736Z,8.86
2022-12-07T04:27:23.889Z,8.86
2022-12-07T04:28:26.185Z,8.84
2022-12-07T04:29:28.739Z,8.85
2022-12-07T04:30:30.959Z,8.85
2022-12-07T04:31:33.133Z,8.86
2022-12-07T04:32:35.461Z,8.84
2022-12-07T04:33:37.774Z,8.84
2022-12-07T04:34:39.991Z,8.83
2022-12-07T04:35:44.143Z,8.83
2022-12-07T04:36:47.338Z,8.84
2022-12-07T04:37:49.503Z,8.82
2022-12-07T04:38:53.505Z,8.81
2022-12-07T04:39:55.612Z,8.81
2022-12-07T04:40:57.768Z,8.80
2022-12-07T04:42:01.043Z,8.80
2022-12-07T04:43:03.345Z,8.79
2022-12-07T04:44:08.265Z,8.79
2022-12-07T04:45:10.804Z,8.79
2022-12-07T04:46:12.999Z,8.78
2022-12-07T04:47:15.303Z,8.78
2022-12-07T04:48:17.482Z,8.76
2022-12-07T04:49:20.193Z,8.75
2022-12-07T04:50:22.355Z,8.77
2022-12-07T04:51:27.654Z,8.76
2022-12-07T04:52:29.753Z,8.76
2022-12-07T04:53:31.875Z,8.73
2022-12-07T04:54:34.028Z,8.71
2022-12-07T04:55:36.935Z,8.74
2022-12-07T04:56:39.106Z,8.74
2022-12-07T04:57:41.304Z,8.73
2022-12-07T04:58:45.145Z,8.72
2022-12-07T04:59:47.311Z,8.71
2022-12-07T05:00:49.481Z,8.71
2022-12-07T05:01:51.751Z,8.73
2022-12-07T05:02:53.898Z,8.73
2022-12-07T05:03:56.071Z,8.74
2022-12-07T05:04:58.182Z,8.75
2022-12-07T05:06:00.387Z,8.76
2022-12-07T05:07:02.496Z,8.76
2022-12-07T05:08:04.809Z,8.79
2022-12-07T05:09:07.228Z,8.78
2022-12-07T05:10:09.804Z,8.80
2022-12-07T05:11:32.923Z,8.81
2022-12-07T05:12:35.098Z,8.80
2022-12-07T05:13:37.485Z,8.81
2022-12-07T05:14:39.700Z,8.82
2022-12-07T05:15:43.537Z,8.81
2022-12-07T05:16:48.830Z,8.84
2022-12-07T05:17:53.194Z,8.83
2022-12-07T05:18:55.715Z,8.83
2022-12-07T05:19:57.844Z,8.84
2022-12-07T05:20:59.962Z,8.84
2022-12-07T05:22:02.123Z,8.84
2022-12-07T05:23:04.383Z,8.84
2022-12-07T05:24:07.681Z,8.85
2022-12-07T05:25:10.283Z,8.86
2022-12-07T05:26:12.471Z,8.85
2022-12-07T05:27:14.628Z,8.84
2022-12-07T05:28:16.702Z,8.85
2022-12-07T05:29:19.046Z,8.84
2022-12-07T05:30:21.263Z,8.84
2022-12-07T05:31:24.890Z,8.86
2022-12-07T05:32:27.166Z,8.87
2022-12-07T05:33:29.663Z,8.87
2022-12-07T05:34:31.799Z,8.89
2022-12-07T05:35:33.957Z,8.86
2022-12-07T05:36:36.179Z,8.88
2022-12-07T05:37:38.280Z,8.88
2022-12-07T05:38:40.786Z,8.90
2022-12-07T05:39:43.754Z,8.91
2022-12-07T05:40:45.983Z,8.91
2022-12-07T05:42:06.757Z,8.90
2022-12-07T05:43:08.996Z,8.90
2022-12-07T05:44:11.303Z,8.90
2022-12-07T05:45:13.562Z,8.89
2022-12-07T05:46:15.720Z,8.91
2022-12-07T05:47:17.975Z,8.90
2022-12-07T05:48:20.115Z,8.91
2022-12-07T05:49:22.229Z,8.90
2022-12-07T05:50:24.646Z,8.91
2022-12-07T05:51:26.799Z,8.91
2022-12-07T05:52:29.098Z,8.92
2022-12-07T05:53:31.205Z,8.91
2022-12-07T05:54:33.952Z,8.94
2022-12-07T05:55:36.113Z,8.93
2022-12-07T05:56:38.237Z,8.92
2022-12-07T05:57:40.367Z,8.93
2022-12-07T05:59:01.329Z,8.92
2022-12-07T06:00:05.461Z,8.92
2022-12-07T06:01:07.833Z,8.91
2022-12-07T06:02:13.226Z,8.91
2022-12-07T06:03:15.612Z,8.90
2022-12-07T06:04:18.127Z,8.91
2022-12-07T06:05:20.298Z,8.91
2022-12-07T06:06:22.753Z,8.90
2022-12-07T06:07:24.980Z,8.89
2022-12-07T06:08:27.261Z,8.90
2022-12-07T06:09:30.584Z,8.90
2022-12-07T06:10:32.742Z,8.88
2022-12-07T06:11:53.765Z,8.88
2022-12-07T06:12:55.921Z,8.88
2022-12-07T06:13:58.031Z,8.88
2022-12-07T06:15:00.431Z,8.88
2022-12-07T06:16:02.565Z,8.87
2022-12-07T06:17:04.864Z,8.89
2022-12-07T06:18:06.960Z,8.88
2022-12-07T06:19:09.112Z,8.89
2022-12-07T06:20:11.470Z,8.89
2022-12-07T06:21:13.636Z,8.89
2022-12-07T06:22:17.013Z,8.90
2022-12-07T06:23:19.098Z,8.87
2022-12-07T06:24:21.489Z,8.88
2022-12-07T06:25:23.582Z,8.87
2022-12-07T06:26:25.878Z,8.86
2022-12-07T06:27:28.040Z,8.85
2022-12-07T06:28:30.287Z,8.86
2022-12-07T06:29:32.688Z,8.86
2022-12-07T06:30:34.848Z,8.86
2022-12-07T06:31:37.569Z,8.86
2022-12-07T06:32:39.730Z,8.87
2022-12-07T06:33:42.660Z,8.84
2022-12-07T06:34:44.860Z,8.86
2022-12-07T06:35:47.027Z,8.84
2022-12-07T06:36:52.327Z,8.84
2022-12-07T06:37:54.483Z,8.83
2022-12-07T06:38:56.994Z,8.83
2022-12-07T06:39:59.246Z,8.82
2022-12-07T06:41:01.440Z,8.82
2022-12-07T06:42:03.613Z,8.82
2022-12-07T06:43:05.700Z,8.81
2022-12-07T06:44:08.244Z,8.82
2022-12-07T06:45:10.875Z,8.82
2022-12-07T06:46:13.464Z,8.83
2022-12-07T06:48:37.838Z,8.83
2022-12-07T06:49:39.951Z,8.82
2022-12-07T06:50:42.106Z,8.83
2022-12-07T06:51:44.669Z,8.82
2022-12-07T06:52:46.814Z,8.83
2022-12-07T06:53:49.023Z,8.82
2022-12-07T06:54:51.112Z,8.83
2022-12-07T06:55:53.302Z,8.82
2022-12-07T06:56:55.485Z,8.83
2022-12-07T06:57:57.639Z,8.82
2022-12-07T06:58:59.744Z,8.84
2022-12-07T07:00:02.359Z,8.84
2022-12-07T07:01:09.790Z,8.83
2022-12-07T07:02:12.128Z,8.84
2022-12-07T07:03:14.459Z,8.84
2022-12-07T07:04:16.701Z,8.83
2022-12-07T07:05:18.908Z,8.83
2022-12-07T07:06:21.158Z,8.83
2022-12-07T07:07:23.336Z,8.82
2022-12-07T07:08:25.594Z,8.83
2022-12-07T07:09:28.064Z,8.83
2022-12-07T07:10:30.446Z,8.82
2022-12-07T07:11:32.548Z,8.81
2022-12-07T07:12:34.682Z,8.79
2022-12-07T07:13:37.429Z,8.78
2022-12-07T07:14:39.563Z,8.78
2022-12-07T07:15:41.765Z,8.79
2022-12-07T07:16:44.073Z,8.75
2022-12-07T07:17:46.351Z,8.75
2022-12-07T07:18:48.511Z,8.77
2022-12-07T07:19:50.650Z,8.75
2022-12-07T07:20:53.406Z,8.76
2022-12-07T07:21:55.567Z,8.74
2022-12-07T07:22:58.114Z,8.76
2022-12-07T07:24:00.220Z,8.74
2022-12-07T07:25:02.586Z,8.75
2022-12-07T07:26:04.927Z,8.74
2022-12-07T07:27:07.107Z,8.74
2022-12-07T07:28:09.310Z,8.73
2022-12-07T07:29:11.473Z,8.75
2022-12-07T07:30:14.075Z,8.75
2022-12-07T07:31:16.279Z,8.73
2022-12-07T07:32:18.499Z,8.73
2022-12-07T07:33:20.688Z,8.73
2022-12-07T07:34:22.919Z,8.74
2022-12-07T07:35:25.640Z,8.73
2022-12-07T07:36:27.798Z,8.74
2022-12-07T07:37:29.985Z,8.76
2022-12-07T07:38:32.185Z,8.76
2022-12-07T07:39:34.349Z,8.78
2022-12-07T07:40:36.965Z,8.79
2022-12-07T07:41:39.142Z,8.76
2022-12-07T07:42:41.573Z,8.78
2022-12-07T07:43:43.692Z,8.78
2022-12-07T07:44:45.897Z,8.80
2022-12-07T07:45:48.296Z,8.79
2022-12-07T07:46:50.491Z,8.79
2022-12-07T07:47:53.339Z,8.80
2022-12-07T07:48:55.466Z,8.81
2022-12-07T07:49:58.161Z,8.83
2022-12-07T07:51:00.352Z,8.83
2022-12-07T07:52:02.519Z,8.82
2022-12-07T07:53:04.736Z,8.82
2022-12-07T07:54:06.936Z,8.83
2022-12-07T07:55:09.640Z,8.84
2022-12-07T07:56:11.810Z,8.84
2022-12-07T07:57:14.001Z,8.85
2022-12-07T07:58:16.117Z,8.87
2022-12-07T07:59:18.220Z,8.88
2022-12-07T08:00:20.627Z,8.90
2022-12-07T08:01:22.886Z,8.89
2022-12-07T08:02:25.379Z,8.90
2022-12-07T08:03:27.555Z,8.90
2022-12-07T08:04:29.713Z,8.91
2022-12-07T08:05:31.908Z,8.92
2022-12-07T08:06:34.060Z,8.93
2022-12-07T08:07:36.333Z,8.95
2022-12-07T08:08:38.523Z,8.94
2022-12-07T08:09:40.979Z,8.95
2022-12-07T08:10:43.122Z,8.95
2022-12-07T08:11:46.321Z,8.98
2022-12-07T08:13:07.138Z,8.99
2022-12-07T08:14:10.864Z,8.99
2022-12-07T08:15:12.980Z,9.00
2022-12-07T08:16:16.109Z,8.99
2022-12-07T08:17:18.335Z,8.99
2022-12-07T08:18:20.523Z,9.00
2022-12-07T08:19:22.697Z,9.02
2022-12-07T08:20:24.891Z,9.03
2022-12-07T08:21:27.050Z,9.02
2022-12-07T08:22:29.193Z,9.05
2022-12-07T08:23:39.218Z,9.05
2022-12-07T08:24:42.160Z,9.05
2022-12-07T08:25:44.299Z,9.07
2022-12-07T08:26:46.425Z,9.07
2022-12-07T08:27:49.025Z,9.07
2022-12-07T08:28:51.158Z,9.07
2022-12-07T08:29:53.300Z,9.07
2022-12-07T08:31:01.102Z,9.10
2022-12-07T08:32:08.125Z,9.10
2022-12-07T08:33:11.941Z,9.11
2022-12-07T08:34:14.780Z,9.13
2022-12-07T08:35:17.197Z,9.12
2022-12-07T08:36:19.492Z,9.14
2022-12-07T08:37:21.673Z,9.16
2022-12-07T08:38:27.354Z,9.16
2022-12-07T08:39:33.615Z,9.18
2022-12-07T08:40:36.241Z,9.19
2022-12-07T08:41:38.429Z,9.19
2022-12-07T08:42:41.156Z,9.22
2022-12-07T08:43:43.737Z,9.21
2022-12-07T08:44:47.191Z,9.24
2022-12-07T08:45:57.266Z,9.24
